Time;durP1;ratioP1;P1;durP2;ratioP2;P2;SDS_P1;SDS_P2;PMS_P1;PMS_P2;Temp;Humidity;BMP_temperature;BMP_pressure;BME280_temperature;BME280_humidity;BME280_pressure;Samples;Min_cycle;Max_cycle;Signal;HPM_P1;HPM_P2
2023/05/03 00:02:03;;;;;;;5.00;1.80;;;;;;;6.06;79.97;102716.38;5037237;28;20033;-83
2023/05/03 00:04:30;;;;;;;4.93;1.43;;;;;;;6.02;80.22;102717.66;5054864;28;20028;-82
2023/05/03 00:06:55;;;;;;;7.60;2.05;;;;;;;6.00;79.53;102714.25;5020743;28;20068;-83
2023/05/03 00:09:21;;;;;;;4.83;1.90;;;;;;;5.94;79.72;102714.78;5037506;28;20061;-82
2023/05/03 00:11:46;;;;;;;6.22;1.80;;;;;;;5.88;80.13;102708.09;5020555;28;20044;-83
2023/05/03 00:14:12;;;;;;;6.30;1.60;;;;;;;5.87;80.65;102716.31;5003679;28;20075;-83
2023/05/03 00:16:38;;;;;;;5.47;1.73;;;;;;;5.86;80.98;102712.78;5054773;28;20032;-83
2023/05/03 00:19:03;;;;;;;3.85;1.88;;;;;;;5.85;80.83;102718.31;5036926;28;20086;-83
2023/05/03 00:21:28;;;;;;;2.70;1.67;;;;;;;5.83;80.63;102717.59;5037036;28;20040;-83
2023/05/03 00:23:54;;;;;;;5.10;1.90;;;;;;;5.79;81.13;102714.34;5036135;28;20037;-83
2023/05/03 00:26:20;;;;;;;5.03;1.80;;;;;;;5.76;80.78;102718.16;5036536;28;20025;-83
2023/05/03 00:28:45;;;;;;;4.80;1.92;;;;;;;5.75;81.08;102715.59;5019987;28;20036;-83
2023/05/03 00:31:14;;;;;;;6.77;2.00;;;;;;;5.77;80.94;102719.84;5054276;28;20029;-83
2023/05/03 00:33:39;;;;;;;7.13;2.25;;;;;;;5.74;81.21;102712.06;5020450;28;20172;-83
2023/05/03 00:36:13;;;;;;;5.23;1.70;;;;;;;5.72;80.63;102714.00;5036247;28;20028;-82
2023/05/03 00:38:39;;;;;;;8.80;1.67;;;;;;;5.68;81.02;102712.59;5036614;28;20469;-83
2023/05/03 00:41:05;;;;;;;7.35;1.95;;;;;;;5.67;81.06;102718.09;5019519;28;20531;-83
2023/05/03 00:43:31;;;;;;;9.23;2.17;;;;;;;5.63;81.37;102721.06;5036183;28;20057;-82
2023/05/03 00:46:02;;;;;;;7.60;2.30;;;;;;;5.60;82.08;102715.97;5054097;28;20033;-83
2023/05/03 00:48:27;;;;;;;5.20;2.20;;;;;;;5.57;81.76;102716.25;5020849;28;20041;-82
2023/05/03 00:50:54;;;;;;;5.22;2.00;;;;;;;5.53;81.82;102711.28;5036773;28;20083;-82
2023/05/03 00:53:21;;;;;;;3.45;1.70;;;;;;;5.51;82.13;102713.25;5020650;28;20033;-82
2023/05/03 00:55:47;;;;;;;5.88;2.13;;;;;;;5.48;82.45;102716.19;5053851;28;20116;-83
2023/05/03 00:58:13;;;;;;;6.53;2.25;;;;;;;5.45;82.22;102706.56;5019359;28;20057;-83
2023/05/03 01:00:38;;;;;;;4.45;1.88;;;;;;;5.42;82.07;102707.69;5019725;28;20049;-82
2023/05/03 01:03:04;;;;;;;6.80;2.60;;;;;;;5.39;82.95;102704.44;5036499;28;20037;-83
2023/05/03 01:05:39;;;;;;;4.73;2.00;;;;;;;5.36;82.92;102705.53;5054072;28;20064;-82
2023/05/03 01:08:12;;;;;;;6.20;2.03;;;;;;;5.33;83.09;102692.34;5036153;28;20516;-82
2023/05/03 01:10:45;;;;;;;5.93;2.22;;;;;;;5.28;83.55;102699.97;5036067;28;20473;-83
2023/05/03 01:13:27;;;;;;;5.65;1.90;;;;;;;5.28;83.30;102705.34;5053458;28;20080;-82
2023/05/03 01:16:08;;;;;;;5.95;2.30;;;;;;;5.25;83.82;102706.47;5035670;28;20025;-82
2023/05/03 01:18:43;;;;;;;4.60;2.20;;;;;;;5.26;83.68;102715.41;5035775;28;20067;-81
2023/05/03 01:21:11;;;;;;;4.07;1.60;;;;;;;5.23;83.75;102705.75;5053804;28;20031;-82
2023/05/03 01:23:45;;;;;;;5.10;1.83;;;;;;;5.21;84.13;102715.81;5035239;28;20059;-83
2023/05/03 01:26:16;;;;;;;5.72;2.08;;;;;;;5.18;83.75;102710.72;5053861;28;20064;-83
2023/05/03 01:28:42;;;;;;;5.18;2.15;;;;;;;5.16;84.37;102717.19;5053494;28;20025;-83
2023/05/03 01:31:09;;;;;;;4.20;1.85;;;;;;;5.13;84.50;102715.63;5019988;28;20041;-83
2023/05/03 01:33:48;;;;;;;8.25;2.30;;;;;;;5.09;84.46;102720.44;5035589;28;20040;-82
2023/05/03 01:36:25;;;;;;;4.68;1.90;;;;;;;5.07;84.94;102716.16;5035808;28;20347;-83
2023/05/03 01:38:54;;;;;;;5.30;2.00;;;;;;;5.05;85.22;102712.75;5053405;28;20504;-82
2023/05/03 01:41:22;;;;;;;4.80;1.80;;;;;;;5.03;85.37;102715.56;5035522;28;20079;-82
2023/05/03 01:43:48;;;;;;;4.18;1.85;;;;;;;5.01;85.52;102719.41;5035439;28;20025;-83
2023/05/03 01:46:14;;;;;;;7.35;2.38;;;;;;;4.98;86.04;102717.81;5053069;28;20025;-82
2023/05/03 01:48:39;;;;;;;4.63;2.20;;;;;;;4.95;86.43;102720.78;5035552;28;20033;-82
2023/05/03 01:51:05;;;;;;;6.57;2.30;;;;;;;4.91;86.54;102722.84;5036015;28;20117;-82
2023/05/03 01:53:30;;;;;;;8.23;2.10;;;;;;;4.87;86.44;102715.19;5021734;28;20033;-83
2023/05/03 01:55:56;;;;;;;8.90;2.30;;;;;;;4.85;86.85;102719.84;5039272;28;20422;-82
2023/05/03 01:58:21;;;;;;;8.03;2.37;;;;;;;4.82;87.82;102726.34;5057462;28;20036;-82
2023/05/03 02:00:48;;;;;;;9.13;2.80;;;;;;;4.81;87.58;102724.63;5039245;28;20307;-82
2023/05/03 02:03:13;;;;;;;5.25;2.40;;;;;;;4.77;88.12;102722.34;5057136;28;20049;-83
2023/05/03 02:05:40;;;;;;;10.25;2.20;;;;;;;4.74;87.24;102720.78;5057113;28;20503;-82
2023/05/03 02:08:05;;;;;;;5.38;2.28;;;;;;;4.74;88.65;102726.16;5022916;28;20124;-82
2023/05/03 02:10:31;;;;;;;9.02;2.78;;;;;;;4.71;88.21;102715.63;5027494;28;20187;-82
2023/05/03 02:12:56;;;;;;;4.73;1.83;;;;;;;4.70;88.07;102717.50;5051787;28;20075;-83
2023/05/03 02:15:22;;;;;;;4.43;1.93;;;;;;;4.68;88.55;102716.78;5038954;28;20063;-83
2023/05/03 02:17:48;;;;;;;4.70;2.20;;;;;;;4.64;88.25;102717.16;5022924;28;20461;-83
2023/05/03 02:20:13;;;;;;;5.78;2.38;;;;;;;4.60;88.40;102715.72;5022426;28;20124;-82
2023/05/03 02:22:41;;;;;;;5.83;1.90;;;;;;;4.59;88.27;102708.63;5056659;28;20092;-83
2023/05/03 02:25:06;;;;;;;4.05;2.15;;;;;;;4.53;88.70;102701.94;5039071;28;20119;-83
2023/05/03 02:27:32;;;;;;;5.15;2.63;;;;;;;4.51;88.80;102704.75;5022229;28;20132;-82
2023/05/03 02:29:57;;;;;;;4.53;2.10;;;;;;;4.47;88.65;102705.16;5039250;28;20112;-82
2023/05/03 02:32:23;;;;;;;5.53;2.07;;;;;;;4.46;89.35;102703.44;5022338;28;20583;-82
2023/05/03 02:34:48;;;;;;;5.43;2.40;;;;;;;4.42;89.44;102697.47;5022219;28;20067;-82
2023/05/03 02:37:14;;;;;;;7.78;2.28;;;;;;;4.41;90.29;102692.22;5057043;28;20419;-82
2023/05/03 02:39:40;;;;;;;6.97;2.40;;;;;;;4.39;90.43;102682.44;5056444;28;20044;-83
2023/05/03 02:42:06;;;;;;;7.17;2.47;;;;;;;4.37;90.36;102684.44;5038481;28;20393;-82
2023/05/03 02:44:31;;;;;;;6.47;2.40;;;;;;;4.39;90.37;102687.81;5021797;28;20053;-82
2023/05/03 02:46:57;;;;;;;6.13;2.50;;;;;;;4.38;91.19;102682.56;5005371;28;20060;-82
2023/05/03 02:49:25;;;;;;;11.33;2.80;;;;;;;4.36;90.65;102677.34;5021628;28;20057;-83
2023/05/03 02:51:51;;;;;;;8.85;2.45;;;;;;;4.36;91.17;102666.59;5006079;28;20033;-82
2023/05/03 02:54:17;;;;;;;10.32;2.20;;;;;;;4.35;91.03;102658.66;5022055;28;20132;-82
2023/05/03 02:56:43;;;;;;;8.10;2.60;;;;;;;4.32;90.99;102659.75;5038018;28;20112;-82
2023/05/03 02:59:08;;;;;;;8.45;2.63;;;;;;;4.32;91.73;102657.06;5021553;28;20025;-82
2023/05/03 03:01:33;;;;;;;8.18;2.70;;;;;;;4.30;91.38;102658.19;5005349;28;20029;-82
2023/05/03 03:03:59;;;;;;;5.90;2.47;;;;;;;4.23;91.39;102668.59;5021356;28;20121;-82
2023/05/03 03:06:24;;;;;;;8.17;3.03;;;;;;;4.19;91.10;102670.72;5037878;28;20025;-82
2023/05/03 03:08:50;;;;;;;3.92;2.28;;;;;;;4.15;91.66;102676.44;5021584;28;20473;-83
2023/05/03 03:11:16;;;;;;;8.47;2.83;;;;;;;4.10;91.31;102679.50;5038077;28;20041;-82
2023/05/03 03:13:41;;;;;;;9.13;3.03;;;;;;;4.07;92.51;102679.78;5038646;28;20036;-82
2023/05/03 03:16:07;;;;;;;10.95;2.78;;;;;;;4.08;92.64;102686.03;5022132;28;20033;-82
2023/05/03 03:18:35;;;;;;;11.50;2.90;;;;;;;4.04;93.09;102680.91;5037870;28;20061;-82
2023/05/03 03:21:02;;;;;;;6.38;2.55;;;;;;;4.03;93.27;102681.00;5038518;28;20457;-82
2023/05/03 03:23:28;;;;;;;11.90;2.65;;;;;;;3.98;93.33;102678.69;5037505;28;20139;-82
2023/05/03 03:25:53;;;;;;;4.70;2.70;;;;;;;3.94;93.78;102684.47;5037386;28;20128;-82
2023/05/03 03:28:18;;;;;;;9.13;2.83;;;;;;;3.92;94.19;102703.38;5056078;28;20125;-82
2023/05/03 03:30:44;;;;;;;10.63;2.97;;;;;;;3.90;93.78;102691.94;5037574;28;20064;-82
2023/05/03 03:33:10;;;;;;;5.60;2.70;;;;;;;3.86;93.54;102691.31;5037446;28;20037;-82
2023/05/03 03:35:36;;;;;;;10.90;3.00;;;;;;;3.81;93.51;102696.22;5037500;28;20036;-82
2023/05/03 03:38:01;;;;;;;6.10;2.70;;;;;;;3.80;93.96;102688.28;5037492;28;20025;-82
2023/05/03 03:40:27;;;;;;;7.57;2.80;;;;;;;3.80;93.69;102682.91;5055576;28;20061;-82
2023/05/03 03:42:52;;;;;;;7.67;3.17;;;;;;;3.82;94.56;102686.31;5037615;28;20032;-83
2023/05/03 03:45:17;;;;;;;6.13;3.00;;;;;;;3.83;95.02;102690.72;5005019;28;20021;-82
2023/05/03 03:47:43;;;;;;;6.22;2.88;;;;;;;3.85;93.96;102686.94;5037119;28;20743;-82
2023/05/03 03:50:09;;;;;;;8.03;3.10;;;;;;;3.80;94.09;102673.03;5020530;28;20421;-82
2023/05/03 03:52:34;;;;;;;4.47;2.92;;;;;;;3.82;94.51;102689.00;5037298;28;20068;-82
2023/05/03 03:55:00;;;;;;;9.15;3.00;;;;;;;3.80;94.33;102672.19;5004663;28;20033;-82
2023/05/03 03:57:28;;;;;;;4.53;2.87;;;;;;;3.79;94.42;102682.03;5054678;28;20082;-82
2023/05/03 03:59:54;;;;;;;8.15;3.60;;;;;;;3.79;94.99;102687.41;5006110;28;20029;-82
2023/05/03 04:02:20;;;;;;;5.95;3.10;;;;;;;3.76;94.73;102700.25;5020585;28;20525;-82
2023/05/03 04:04:46;;;;;;;6.10;3.22;;;;;;;3.74;95.29;102700.38;5004254;28;20495;-82
2023/05/03 04:07:11;;;;;;;7.40;3.50;;;;;;;3.74;95.37;102696.84;5036934;28;20051;-83
2023/05/03 04:09:37;;;;;;;6.53;3.20;;;;;;;3.73;94.91;102700.50;5020482;28;20040;-82
2023/05/03 04:12:03;;;;;;;6.50;3.20;;;;;;;3.71;95.50;102702.47;5020869;28;20480;-82
2023/05/03 04:14:28;;;;;;;8.57;3.30;;;;;;;3.70;95.84;102698.91;5036463;28;20029;-82
2023/05/03 04:16:53;;;;;;;9.47;3.57;;;;;;;3.68;96.43;102698.19;5019076;28;20576;-82
2023/05/03 04:19:20;;;;;;;10.97;3.50;;;;;;;3.73;95.66;102697.81;5036663;28;20552;-86
2023/05/03 04:21:46;;;;;;;9.43;3.33;;;;;;;3.74;96.59;102703.06;5004275;28;20397;-82
2023/05/03 04:24:15;;;;;;;11.53;3.70;;;;;;;3.70;95.95;102704.28;5019790;28;20063;-82
2023/05/03 04:26:41;;;;;;;7.68;3.72;;;;;;;3.74;96.24;102707.59;5036759;28;20079;-82
2023/05/03 04:29:07;;;;;;;6.10;3.40;;;;;;;3.73;96.17;102701.34;5036660;28;20036;-82
2023/05/03 04:31:32;;;;;;;8.07;3.53;;;;;;;3.75;96.72;102698.53;5019996;28;20036;-82
2023/05/03 04:33:57;;;;;;;9.70;3.63;;;;;;;3.75;95.66;102706.59;5019724;28;20029;-82
2023/05/03 04:36:28;;;;;;;5.80;3.15;;;;;;;3.79;95.32;102708.06;5036237;28;20292;-82
2023/05/03 04:38:54;;;;;;;8.75;3.50;;;;;;;3.83;95.38;102712.19;5036291;28;20041;-82
2023/05/03 04:41:20;;;;;;;5.15;2.83;;;;;;;3.85;95.04;102729.03;5036253;28;20039;-82
2023/05/03 04:43:45;;;;;;;7.82;3.25;;;;;;;3.85;95.10;102720.97;5054027;28;20029;-82
2023/05/03 04:46:11;;;;;;;12.13;3.57;;;;;;;3.89;94.59;102735.03;5019746;28;20463;-82
2023/05/03 04:48:37;;;;;;;9.10;3.27;;;;;;;3.91;94.64;102743.78;5054000;28;20519;-83
2023/05/03 04:51:02;;;;;;;8.75;3.70;;;;;;;3.95;94.69;102747.94;5003378;28;20220;-82
2023/05/03 04:53:27;;;;;;;9.17;3.70;;;;;;;3.99;94.28;102746.72;5036131;28;20135;-82
2023/05/03 04:55:53;;;;;;;9.67;3.73;;;;;;;4.01;94.39;102761.72;5054346;28;20116;-82
2023/05/03 04:58:18;;;;;;;9.40;3.83;;;;;;;4.07;93.85;102763.06;5035890;28;20052;-82
2023/05/03 05:00:44;;;;;;;5.72;3.53;;;;;;;4.09;93.49;102763.78;5036043;28;20537;-82
2023/05/03 05:03:10;;;;;;;7.97;4.40;;;;;;;4.14;93.21;102766.94;5019529;28;20045;-82
2023/05/03 05:05:35;;;;;;;9.93;3.67;;;;;;;4.20;92.94;102769.13;5036104;28;20029;-82
2023/05/03 05:08:00;;;;;;;8.77;3.73;;;;;;;4.22;93.38;102775.25;5019466;28;20063;-82
2023/05/03 05:10:26;;;;;;;7.10;3.63;;;;;;;4.27;92.96;102774.00;5019256;28;20064;-82
2023/05/03 05:12:51;;;;;;;8.00;3.80;;;;;;;4.33;93.72;102766.28;5053960;28;20453;-82
2023/05/03 05:15:17;;;;;;;8.37;3.63;;;;;;;4.38;93.46;102771.28;5019591;28;20080;-83
2023/05/03 05:17:42;;;;;;;9.57;3.75;;;;;;;4.41;93.16;102770.19;5035722;28;20326;-84
2023/05/03 05:20:11;;;;;;;9.73;3.73;;;;;;;4.44;92.59;102768.06;5035528;28;20079;-84
2023/05/03 05:22:37;;;;;;;6.10;3.50;;;;;;;4.51;92.40;102771.13;5035086;28;20033;-84
2023/05/03 05:25:03;;;;;;;4.97;3.88;;;;;;;4.55;91.77;102764.50;5019760;28;20028;-84
2023/05/03 05:27:29;;;;;;;6.50;3.20;;;;;;;4.63;92.50;102753.94;5035348;28;20028;-84
2023/05/03 05:29:55;;;;;;;9.68;3.72;;;;;;;4.70;91.01;102760.50;5035479;28;20059;-83
2023/05/03 05:32:21;;;;;;;10.68;3.38;;;;;;;4.75;90.57;102762.81;5053081;28;20048;-84
2023/05/03 05:34:51;;;;;;;8.07;3.67;;;;;;;4.80;90.68;102757.91;5053575;28;20033;-83
2023/05/03 05:37:17;;;;;;;10.32;3.75;;;;;;;4.86;90.89;102753.84;5036571;28;20029;-84
2023/05/03 05:39:43;;;;;;;8.07;3.45;;;;;;;4.94;91.05;102762.09;5035155;28;20037;-83
2023/05/03 05:42:09;;;;;;;9.40;4.07;;;;;;;4.98;90.27;102762.69;5035352;28;20041;-82
2023/05/03 05:44:34;;;;;;;7.35;3.47;;;;;;;5.03;89.39;102758.59;5053282;28;20457;-82
2023/05/03 05:47:00;;;;;;;8.77;4.00;;;;;;;5.10;89.54;102757.09;5035875;28;20396;-83
2023/05/03 05:49:25;;;;;;;8.77;3.47;;;;;;;5.18;89.88;102760.97;5036079;28;20028;-88
2023/05/03 05:51:50;;;;;;;6.90;3.70;;;;;;;5.22;89.48;102755.19;5002250;28;20036;-83
2023/05/03 05:54:16;;;;;;;6.50;3.50;;;;;;;5.31;89.61;102771.53;5035622;28;20033;-82
2023/05/03 05:56:41;;;;;;;8.10;3.58;;;;;;;5.35;89.81;102771.13;5019046;28;20029;-82
2023/05/03 05:59:07;;;;;;;9.10;3.90;;;;;;;5.41;89.42;102767.06;5018843;28;20112;-83
2023/05/03 06:01:33;;;;;;;5.40;3.30;;;;;;;5.44;88.84;102764.09;5053484;28;20052;-83
2023/05/03 06:03:58;;;;;;;11.15;3.83;;;;;;;5.50;88.76;102768.09;5019704;28;20087;-83
2023/05/03 06:06:24;;;;;;;9.53;3.97;;;;;;;5.56;88.62;102773.78;5035242;28;20140;-83
2023/05/03 06:08:50;;;;;;;9.60;4.33;;;;;;;5.64;89.19;102775.81;5035031;28;20512;-83
2023/05/03 06:11:16;;;;;;;10.93;3.88;;;;;;;5.71;88.17;102765.31;5018829;28;20033;-83
2023/05/03 06:13:42;;;;;;;8.52;4.03;;;;;;;5.79;88.07;102766.34;5035418;28;20029;-83
2023/05/03 06:16:08;;;;;;;9.52;3.88;;;;;;;5.87;87.75;102760.28;5035127;28;20029;-83
2023/05/03 06:18:33;;;;;;;6.87;3.30;;;;;;;5.94;87.22;102763.28;5034660;28;20136;-83
2023/05/03 06:20:59;;;;;;;14.67;4.20;;;;;;;6.01;87.54;102755.50;5018055;28;20029;-83
2023/05/03 06:23:26;;;;;;;11.70;3.63;;;;;;;6.07;86.71;102755.84;5018229;28;20049;-84
2023/05/03 06:25:52;;;;;;;5.10;3.22;;;;;;;6.14;86.67;102761.50;5018773;28;20037;-83
2023/05/03 06:28:17;;;;;;;8.87;3.77;;;;;;;6.20;85.96;102752.88;5018805;28;20029;-82
2023/05/03 06:30:50;;;;;;;9.40;3.80;;;;;;;6.26;86.73;102760.41;5035011;28;20037;-83
2023/05/03 06:33:16;;;;;;;8.87;3.40;;;;;;;6.34;85.75;102757.00;5053543;28;20029;-82
2023/05/03 06:35:41;;;;;;;8.00;3.90;;;;;;;6.42;85.51;102758.97;5018239;28;20029;-82
2023/05/03 06:38:08;;;;;;;11.97;4.13;;;;;;;6.46;85.60;102750.47;5002329;28;20033;-83
2023/05/03 06:40:34;;;;;;;8.45;3.65;;;;;;;6.55;85.05;102758.72;5054539;28;20033;-83
2023/05/03 06:42:59;;;;;;;9.25;3.80;;;;;;;6.60;84.18;102754.59;5021926;28;20358;-83
2023/05/03 06:45:28;;;;;;;7.80;3.30;;;;;;;6.67;83.71;102752.16;5037930;28;20175;-82
2023/05/03 06:47:53;;;;;;;6.38;3.38;;;;;;;6.73;83.32;102748.06;5038171;28;20072;-83
2023/05/03 06:50:19;;;;;;;6.63;3.87;;;;;;;6.79;83.98;102744.78;5021608;28;20480;-83
2023/05/03 06:52:45;;;;;;;9.40;3.73;;;;;;;6.86;83.65;102743.22;5021934;28;20040;-83
2023/05/03 06:55:13;;;;;;;10.25;3.33;;;;;;;6.94;83.45;102739.78;5038503;28;20105;-83
2023/05/03 06:57:40;;;;;;;7.65;3.42;;;;;;;7.06;82.67;102727.84;5037998;28;20449;-82
2023/05/03 07:00:06;;;;;;;6.57;3.08;;;;;;;7.14;81.56;102727.94;5037801;28;20052;-83
2023/05/03 07:02:32;;;;;;;8.35;3.35;;;;;;;7.24;80.34;102732.47;5013318;28;20033;-82
2023/05/03 07:04:58;;;;;;;8.03;3.60;;;;;;;7.31;79.92;102736.28;5038188;28;20028;-82
2023/05/03 07:07:23;;;;;;;7.25;3.60;;;;;;;7.40;80.74;102737.22;5021535;28;20120;-82
2023/05/03 07:09:48;;;;;;;7.68;3.03;;;;;;;7.46;79.06;102736.66;5037771;28;20059;-83
2023/05/03 07:12:15;;;;;;;7.87;3.40;;;;;;;7.51;79.10;102737.94;5021478;28;20057;-83
2023/05/03 07:14:41;;;;;;;7.43;3.53;;;;;;;7.63;77.45;102743.13;5037777;28;20024;-82
2023/05/03 07:17:07;;;;;;;6.05;3.10;;;;;;;7.69;78.46;102739.81;5055320;28;20029;-83
2023/05/03 07:19:33;;;;;;;6.63;3.43;;;;;;;7.73;76.98;102731.25;5021991;28;20036;-87
2023/05/03 07:21:58;;;;;;;7.25;3.08;;;;;;;7.83;77.20;102727.66;5021790;28;20037;-83
2023/05/03 07:24:24;;;;;;;6.30;3.80;;;;;;;7.92;77.26;102729.44;5036959;28;20091;-83
2023/05/03 07:26:51;;;;;;;8.85;3.50;;;;;;;7.99;77.36;102738.66;5053930;28;20044;-82
2023/05/03 07:29:16;;;;;;;7.28;3.53;;;;;;;8.07;76.62;102736.06;5038403;28;20025;-83
2023/05/03 07:31:43;;;;;;;9.43;4.27;;;;;;;8.15;76.97;102737.13;5020945;28;20389;-83
2023/05/03 07:34:09;;;;;;;7.65;3.90;;;;;;;8.23;76.94;102731.81;5021219;28;20049;-82
2023/05/03 07:36:35;;;;;;;8.07;3.73;;;;;;;8.28;76.76;102725.94;5038016;28;20055;-82
2023/05/03 07:39:00;;;;;;;9.85;3.55;;;;;;;8.35;74.29;102717.03;5055279;28;20036;-83
2023/05/03 07:41:26;;;;;;;10.43;3.67;;;;;;;8.42;73.67;102715.41;5055140;28;20037;-82
2023/05/03 07:43:51;;;;;;;8.20;3.55;;;;;;;8.49;73.58;102712.13;5037301;28;20455;-83
2023/05/03 07:46:17;;;;;;;11.10;4.00;;;;;;;8.55;73.89;102719.63;5055149;28;20024;-83
2023/05/03 07:48:42;;;;;;;8.80;3.47;;;;;;;8.60;73.14;102717.28;5020849;28;20507;-83
2023/05/03 07:51:10;;;;;;;8.40;3.60;;;;;;;8.68;72.98;102711.09;5036778;28;20029;-83
2023/05/03 07:53:35;;;;;;;8.25;3.60;;;;;;;8.75;72.04;102704.91;5037114;28;20091;-83
2023/05/03 07:56:01;;;;;;;5.83;3.30;;;;;;;8.84;71.24;102705.78;5020703;28;20029;-82
2023/05/03 07:58:26;;;;;;;7.50;3.28;;;;;;;8.95;70.27;102693.88;5037565;28;20373;-83
2023/05/03 08:00:52;;;;;;;7.93;3.20;;;;;;;9.01;69.13;102693.22;5053669;28;20029;-82
2023/05/03 08:03:17;;;;;;;8.03;3.13;;;;;;;9.06;68.48;102685.47;5054796;28;20114;-82
2023/05/03 08:05:43;;;;;;;9.37;3.80;;;;;;;9.15;68.97;102699.91;5004052;28;20074;-82
2023/05/03 08:08:09;;;;;;;8.13;3.47;;;;;;;9.24;68.03;102688.13;5037037;28;20473;-82
2023/05/03 08:10:36;;;;;;;6.73;3.00;;;;;;;9.34;66.96;102685.28;5037309;28;20079;-82
2023/05/03 08:13:05;;;;;;;6.88;3.03;;;;;;;9.38;66.98;102670.41;5036731;28;20037;-82
2023/05/03 08:15:30;;;;;;;7.40;3.22;;;;;;;9.43;67.28;102661.78;5054618;28;20033;-82
2023/05/03 08:17:55;;;;;;;8.77;3.30;;;;;;;9.49;67.60;102663.81;5020085;28;20045;-82
2023/05/03 08:20:22;;;;;;;6.90;3.50;;;;;;;9.53;67.43;102667.91;5019985;28;20091;-82
2023/05/03 08:22:50;;;;;;;7.32;3.25;;;;;;;9.59;65.66;102677.25;5036628;28;20584;-82
2023/05/03 08:25:16;;;;;;;9.00;3.30;;;;;;;9.63;65.63;102678.63;5054564;28;20029;-82
2023/05/03 08:27:41;;;;;;;12.27;3.40;;;;;;;9.68;65.69;102678.97;5019976;28;20035;-82
2023/05/03 08:30:07;;;;;;;4.83;2.70;;;;;;;9.71;63.76;102661.53;5036284;28;20108;-82
2023/05/03 08:32:33;;;;;;;10.17;3.37;;;;;;;9.76;63.07;102667.31;5003986;28;20473;-82
2023/05/03 08:34:58;;;;;;;6.70;3.17;;;;;;;9.78;63.85;102665.28;5037209;28;20067;-82
2023/05/03 08:37:24;;;;;;;6.67;3.03;;;;;;;9.84;62.69;102656.47;5020560;28;20450;-82
2023/05/03 08:39:50;;;;;;;7.18;2.90;;;;;;;9.91;60.89;102662.09;5036446;28;20493;-82
2023/05/03 08:42:15;;;;;;;10.50;2.80;;;;;;;9.99;60.51;102668.38;5020061;28;20033;-82
2023/05/03 08:44:49;;;;;;;6.07;3.30;;;;;;;10.05;61.54;102666.84;5036290;28;20040;-82
2023/05/03 08:47:15;;;;;;;5.43;2.70;;;;;;;10.11;61.12;102660.78;5054555;28;20062;-82
2023/05/03 08:49:42;;;;;;;8.35;3.05;;;;;;;10.24;59.77;102654.00;5053961;28;20083;-87
2023/05/03 08:52:13;;;;;;;6.10;2.90;;;;;;;10.30;59.70;102661.44;5019820;28;20123;-82
2023/05/03 08:54:39;;;;;;;6.53;2.83;;;;;;;10.35;59.68;102672.69;5036872;28;20519;-82
2023/05/03 08:57:10;;;;;;;6.47;3.20;;;;;;;10.42;60.04;102668.25;5003373;28;20029;-82
2023/05/03 08:59:57;;;;;;;5.60;2.88;;;;;;;10.53;58.78;102681.50;5036309;28;20032;-82
2023/05/03 09:02:23;;;;;;;7.30;2.70;;;;;;;10.62;58.02;102682.34;5035895;28;20564;-82
2023/05/03 09:04:48;;;;;;;4.00;2.53;;;;;;;10.70;56.55;102670.63;5019119;28;20029;-82
2023/05/03 09:07:16;;;;;;;5.57;2.87;;;;;;;10.76;56.90;102669.09;5019467;28;20037;-81
2023/05/03 09:09:42;;;;;;;5.75;2.85;;;;;;;10.85;57.21;102671.63;5020074;28;20034;-81
2023/05/03 09:12:07;;;;;;;5.57;2.88;;;;;;;10.90;57.58;102667.56;5035930;28;20025;-82
2023/05/03 09:14:46;;;;;;;5.60;2.83;;;;;;;11.01;58.39;102665.31;5035916;28;20536;-81
2023/05/03 09:17:20;;;;;;;5.68;2.35;;;;;;;11.12;56.45;102672.25;5053463;28;20108;-81
2023/05/03 09:19:54;;;;;;;6.40;3.10;;;;;;;11.21;56.00;102670.34;5053946;28;20071;-82
2023/05/03 09:22:21;;;;;;;6.83;2.90;;;;;;;11.28;55.00;102665.91;5019286;28;20035;-82
2023/05/03 09:24:55;;;;;;;8.35;3.25;;;;;;;11.35;55.27;102656.03;5036348;28;20053;-82
2023/05/03 09:27:21;;;;;;;6.93;3.22;;;;;;;11.46;56.08;102662.94;5035395;28;20082;-82
2023/05/03 09:29:47;;;;;;;7.63;3.50;;;;;;;11.52;55.27;102662.22;5035399;28;20108;-82
2023/05/03 09:32:12;;;;;;;6.97;2.67;;;;;;;11.55;54.63;102666.47;5035345;28;20033;-82
2023/05/03 09:34:40;;;;;;;6.05;2.90;;;;;;;11.67;55.30;102656.88;5035393;28;20135;-82
2023/05/03 09:37:06;;;;;;;3.55;2.33;;;;;;;11.77;53.80;102662.94;5019458;28;20464;-82
2023/05/03 09:39:32;;;;;;;5.43;2.60;;;;;;;11.82;53.51;102651.50;5035154;28;20083;-82
2023/05/03 09:41:57;;;;;;;5.60;2.63;;;;;;;11.90;54.29;102661.53;5035418;28;20037;-82
2023/05/03 09:44:44;;;;;;;9.17;2.90;;;;;;;12.03;54.52;102652.78;5019190;28;20055;-82
2023/05/03 09:47:10;;;;;;;5.45;2.70;;;;;;;12.17;52.45;102656.59;5035626;28;20037;-82
2023/05/03 09:49:37;;;;;;;6.00;2.80;;;;;;;12.25;52.55;102657.38;5019045;28;20358;-82
2023/05/03 09:52:05;;;;;;;8.37;3.33;;;;;;;12.36;51.70;102647.09;5053234;28;20539;-82
2023/05/03 09:54:31;;;;;;;7.85;2.83;;;;;;;12.43;51.92;102648.03;5053133;28;20481;-82
2023/05/03 09:56:56;;;;;;;6.45;3.33;;;;;;;12.62;51.86;102633.91;5018735;28;20082;-82
2023/05/03 09:59:22;;;;;;;5.20;2.80;;;;;;;12.77;50.44;102625.75;5035266;28;20080;-82
2023/05/03 10:01:49;;;;;;;8.13;3.87;;;;;;;12.90;49.84;102637.88;5053177;28;20183;-82
2023/05/03 10:04:20;;;;;;;4.72;2.88;;;;;;;12.97;50.44;102642.38;5018923;28;20036;-82
2023/05/03 10:06:48;;;;;;;7.40;3.03;;;;;;;13.14;50.62;102632.13;5034912;28;20045;-82
2023/05/03 10:09:29;;;;;;;4.93;2.80;;;;;;;13.33;51.08;102628.00;5035196;28;20079;-82
2023/05/03 10:11:59;;;;;;;10.98;3.20;;;;;;;13.43;48.56;102621.41;5034866;28;20037;-82
2023/05/03 10:14:25;;;;;;;7.40;2.80;;;;;;;13.49;47.82;102632.41;5035563;28;20099;-82
2023/05/03 10:16:59;;;;;;;6.07;2.78;;;;;;;13.60;47.97;102619.31;5038960;28;20033;-82
2023/05/03 10:19:40;;;;;;;5.30;2.67;;;;;;;13.62;47.26;102633.59;5039244;28;20101;-82
2023/05/03 10:22:08;;;;;;;9.25;2.70;;;;;;;13.73;47.63;102632.25;5057278;28;20032;-82
2023/05/03 10:24:34;;;;;;;5.97;3.20;;;;;;;13.84;47.09;102635.31;5038648;28;20049;-82
2023/05/03 10:27:01;;;;;;;6.87;2.97;;;;;;;13.97;46.97;102645.53;5038705;28;20443;-82
2023/05/03 10:29:45;;;;;;;5.97;3.20;;;;;;;14.16;47.94;102632.28;5038765;28;20025;-83
2023/05/03 10:32:32;;;;;;;5.38;2.95;;;;;;;14.38;47.81;102633.94;5038497;28;20041;-83
2023/05/03 10:35:06;;;;;;;7.03;2.95;;;;;;;14.54;46.04;102634.66;5056559;28;20029;-83
2023/05/03 10:37:33;;;;;;;5.82;3.10;;;;;;;14.74;45.02;102632.97;5039343;28;20021;-82
2023/05/03 10:40:10;;;;;;;6.17;2.90;;;;;;;15.00;45.18;102633.31;5038638;28;20124;-82
2023/05/03 10:42:37;;;;;;;5.32;2.78;;;;;;;15.10;43.45;102628.34;5039341;28;20407;-82
2023/05/03 10:45:02;;;;;;;6.68;3.20;;;;;;;15.34;44.44;102629.72;5022284;28;20041;-83
2023/05/03 10:47:28;;;;;;;5.75;2.80;;;;;;;15.60;43.66;102626.25;5038509;28;20366;-83
2023/05/03 10:50:15;;;;;;;6.60;2.70;;;;;;;15.87;44.26;102626.34;5038495;28;20033;-83
2023/05/03 10:52:41;;;;;;;6.43;3.42;;;;;;;16.06;42.21;102627.44;5056432;28;20024;-83
2023/05/03 10:55:11;;;;;;;6.03;3.07;;;;;;;16.35;43.60;102628.06;5055980;28;20070;-83
2023/05/03 10:57:40;;;;;;;8.18;3.20;;;;;;;16.57;42.30;102627.84;5038139;28;20047;-83
2023/05/03 11:00:17;;;;;;;7.13;3.00;;;;;;;16.89;42.53;102626.16;5055996;28;20024;-83
2023/05/03 11:03:17;;;;;;;12.00;3.58;;;;;;;17.34;42.81;102628.09;5038959;28;20032;-83
2023/05/03 11:05:43;;;;;;;8.17;3.40;;;;;;;17.71;39.23;102622.84;5054737;28;20120;-83
2023/05/03 11:08:13;;;;;;;6.47;3.10;;;;;;;18.02;39.25;102619.28;5021790;28;20037;-83
2023/05/03 11:10:40;;;;;;;6.53;2.85;;;;;;;18.33;37.97;102611.25;5037899;28;20064;-83
2023/05/03 11:13:05;;;;;;;5.80;3.10;;;;;;;19.10;35.74;102605.38;5020746;28;20044;-83
2023/05/03 11:15:34;;;;;;;7.20;3.40;;;;;;;19.84;34.69;102599.75;5038055;28;20078;-83
2023/05/03 11:18:03;;;;;;;8.02;3.13;;;;;;;22.56;31.72;102587.97;5055383;28;20021;-83
2023/05/03 11:20:29;;;;;;;6.95;3.20;;;;;;;24.60;29.01;102595.09;5022332;28;20064;-83
2023/05/03 11:22:55;;;;;;;5.70;3.20;;;;;;;26.86;25.80;102596.56;5021373;28;20488;-84
2023/05/03 11:25:21;;;;;;;8.23;3.40;;;;;;;28.38;22.98;102589.41;5037566;28;20307;-83
2023/05/03 11:27:46;;;;;;;8.07;3.42;;;;;;;30.11;21.98;102580.91;5020773;28;20404;-83
2023/05/03 11:30:14;;;;;;;6.43;3.37;;;;;;;31.44;20.75;102580.16;5037471;28;20039;-84
2023/05/03 11:32:43;;;;;;;8.20;3.88;;;;;;;31.96;19.56;102571.34;5037243;28;20040;-84